sensor_id;sensor_type;location;lat;lon;timestamp;P1;durP1;ratioP1;P2;durP2;ratioP2
25952;SDS011;13750;50.804;8.764;2023-06-10T00:00:39;4.80;;;4.40;;
25952;SDS011;13750;50.804;8.764;2023-06-10T00:03:08;4.22;;;3.92;;
25952;SDS011;13750;50.804;8.764;2023-06-10T00:05:34;4.43;;;4.03;;
25952;SDS011;13750;50.804;8.764;2023-06-10T00:08:01;4.05;;;3.75;;
25952;SDS011;13750;50.804;8.764;2023-06-10T00:10:35;7.90;;;7.20;;
25952;SDS011;13750;50.804;8.764;2023-06-10T00:13:03;8.35;;;7.55;;
25952;SDS011;13750;50.804;8.764;2023-06-10T00:15:30;7.20;;;6.60;;
25952;SDS011;13750;50.804;8.764;2023-06-10T00:17:56;6.28;;;5.78;;
25952;SDS011;13750;50.804;8.764;2023-06-10T00:20:22;6.90;;;6.30;;
25952;SDS011;13750;50.804;8.764;2023-06-10T00:22:48;8.20;;;7.50;;
25952;SDS011;13750;50.804;8.764;2023-06-10T00:25:14;7.47;;;6.88;;
25952;SDS011;13750;50.804;8.764;2023-06-10T00:27:40;6.80;;;6.20;;
25952;SDS011;13750;50.804;8.764;2023-06-10T00:30:06;6.10;;;5.57;;
25952;SDS011;13750;50.804;8.764;2023-06-10T00:32:32;5.18;;;4.75;;
25952;SDS011;13750;50.804;8.764;2023-06-10T00:34:58;4.90;;;4.38;;
25952;SDS011;13750;50.804;8.764;2023-06-10T00:37:24;4.83;;;4.40;;
25952;SDS011;13750;50.804;8.764;2023-06-10T00:39:49;5.20;;;4.70;;
25952;SDS011;13750;50.804;8.764;2023-06-10T00:42:15;8.23;;;7.53;;
25952;SDS011;13750;50.804;8.764;2023-06-10T00:44:41;7.03;;;6.43;;
25952;SDS011;13750;50.804;8.764;2023-06-10T00:47:06;6.43;;;5.93;;
25952;SDS011;13750;50.804;8.764;2023-06-10T00:49:32;6.00;;;5.50;;
25952;SDS011;13750;50.804;8.764;2023-06-10T00:54:25;5.40;;;4.90;;
25952;SDS011;13750;50.804;8.764;2023-06-10T00:56:50;4.97;;;4.40;;
25952;SDS011;13750;50.804;8.764;2023-06-10T00:59:17;4.43;;;4.03;;
25952;SDS011;13750;50.804;8.764;2023-06-10T01:01:43;8.23;;;7.53;;
25952;SDS011;13750;50.804;8.764;2023-06-10T01:04:11;8.65;;;7.00;;
25952;SDS011;13750;50.804;8.764;2023-06-10T01:14:25;7.13;;;6.53;;
25952;SDS011;13750;50.804;8.764;2023-06-10T01:16:51;6.72;;;6.13;;
25952;SDS011;13750;50.804;8.764;2023-06-10T01:19:18;7.55;;;6.80;;
25952;SDS011;13750;50.804;8.764;2023-06-10T01:21:43;7.87;;;7.10;;
25952;SDS011;13750;50.804;8.764;2023-06-10T01:24:13;7.88;;;7.10;;
25952;SDS011;13750;50.804;8.764;2023-06-10T01:26:39;7.05;;;6.45;;
25952;SDS011;13750;50.804;8.764;2023-06-10T01:29:14;7.22;;;6.63;;
25952;SDS011;13750;50.804;8.764;2023-06-10T01:32:15;8.73;;;7.70;;
25952;SDS011;13750;50.804;8.764;2023-06-10T01:34:45;7.97;;;7.32;;
25952;SDS011;13750;50.804;8.764;2023-06-10T01:39:40;6.45;;;5.95;;
25952;SDS011;13750;50.804;8.764;2023-06-10T01:42:07;8.38;;;7.68;;
25952;SDS011;13750;50.804;8.764;2023-06-10T01:44:35;7.70;;;7.10;;
25952;SDS011;13750;50.804;8.764;2023-06-10T01:47:00;8.73;;;7.93;;
25952;SDS011;13750;50.804;8.764;2023-06-10T01:49:26;8.13;;;7.43;;
25952;SDS011;13750;50.804;8.764;2023-06-10T01:51:53;7.68;;;6.95;;
25952;SDS011;13750;50.804;8.764;2023-06-10T01:54:19;9.30;;;8.40;;
25952;SDS011;13750;50.804;8.764;2023-06-10T01:56:44;9.30;;;8.33;;
25952;SDS011;13750;50.804;8.764;2023-06-10T01:59:10;8.63;;;7.93;;
25952;SDS011;13750;50.804;8.764;2023-06-10T02:01:35;9.17;;;8.00;;
25952;SDS011;13750;50.804;8.764;2023-06-10T02:04:01;8.93;;;8.23;;
25952;SDS011;13750;50.804;8.764;2023-06-10T02:06:27;9.10;;;8.27;;
25952;SDS011;13750;50.804;8.764;2023-06-10T02:08:52;9.33;;;8.43;;
25952;SDS011;13750;50.804;8.764;2023-06-10T02:11:18;8.00;;;7.20;;
25952;SDS011;13750;50.804;8.764;2023-06-10T02:13:43;9.30;;;8.40;;
25952;SDS011;13750;50.804;8.764;2023-06-10T02:16:09;9.30;;;8.47;;
25952;SDS011;13750;50.804;8.764;2023-06-10T02:18:37;8.63;;;7.68;;
25952;SDS011;13750;50.804;8.764;2023-06-10T02:21:05;8.55;;;7.82;;
25952;SDS011;13750;50.804;8.764;2023-06-10T02:23:31;8.75;;;7.95;;
25952;SDS011;13750;50.804;8.764;2023-06-10T02:25:57;8.67;;;7.97;;
25952;SDS011;13750;50.804;8.764;2023-06-10T02:28:23;7.13;;;6.50;;
25952;SDS011;13750;50.804;8.764;2023-06-10T02:30:48;8.83;;;8.13;;
25952;SDS011;13750;50.804;8.764;2023-06-10T02:33:14;8.73;;;7.83;;
25952;SDS011;13750;50.804;8.764;2023-06-10T02:35:40;9.70;;;8.70;;
25952;SDS011;13750;50.804;8.764;2023-06-10T02:38:06;9.30;;;8.40;;
25952;SDS011;13750;50.804;8.764;2023-06-10T02:40:32;8.38;;;7.72;;
25952;SDS011;13750;50.804;8.764;2023-06-10T02:42:58;8.33;;;7.43;;
25952;SDS011;13750;50.804;8.764;2023-06-10T02:45:23;8.83;;;7.53;;
25952;SDS011;13750;50.804;8.764;2023-06-10T02:47:50;7.80;;;7.10;;
25952;SDS011;13750;50.804;8.764;2023-06-10T02:50:15;8.03;;;7.23;;
25952;SDS011;13750;50.804;8.764;2023-06-10T02:52:41;7.97;;;7.27;;
25952;SDS011;13750;50.804;8.764;2023-06-10T02:55:06;8.67;;;7.77;;
25952;SDS011;13750;50.804;8.764;2023-06-10T02:57:32;8.10;;;7.27;;
25952;SDS011;13750;50.804;8.764;2023-06-10T02:59:58;8.93;;;7.97;;
25952;SDS011;13750;50.804;8.764;2023-06-10T03:02:24;8.13;;;7.32;;
25952;SDS011;13750;50.804;8.764;2023-06-10T03:04:54;9.68;;;8.43;;
25952;SDS011;13750;50.804;8.764;2023-06-10T03:07:23;8.65;;;7.90;;
25952;SDS011;13750;50.804;8.764;2023-06-10T03:09:48;9.53;;;8.57;;
25952;SDS011;13750;50.804;8.764;2023-06-10T03:12:15;8.73;;;8.02;;
25952;SDS011;13750;50.804;8.764;2023-06-10T03:14:41;8.80;;;8.00;;
25952;SDS011;13750;50.804;8.764;2023-06-10T03:17:06;9.80;;;8.80;;
25952;SDS011;13750;50.804;8.764;2023-06-10T03:19:33;8.10;;;7.40;;
25952;SDS011;13750;50.804;8.764;2023-06-10T03:22:09;7.25;;;6.55;;
25952;SDS011;13750;50.804;8.764;2023-06-10T03:24:35;7.72;;;6.93;;
25952;SDS011;13750;50.804;8.764;2023-06-10T03:27:04;9.57;;;8.60;;
25952;SDS011;13750;50.804;8.764;2023-06-10T03:29:33;8.88;;;7.97;;
25952;SDS011;13750;50.804;8.764;2023-06-10T03:31:59;9.03;;;8.23;;
25952;SDS011;13750;50.804;8.764;2023-06-10T03:34:25;8.02;;;7.22;;
25952;SDS011;13750;50.804;8.764;2023-06-10T03:36:50;6.97;;;6.37;;
25952;SDS011;13750;50.804;8.764;2023-06-10T03:39:16;7.33;;;6.63;;
25952;SDS011;13750;50.804;8.764;2023-06-10T03:41:41;7.70;;;6.80;;
25952;SDS011;13750;50.804;8.764;2023-06-10T03:44:07;7.33;;;6.67;;
25952;SDS011;13750;50.804;8.764;2023-06-10T03:46:32;7.40;;;6.70;;
25952;SDS011;13750;50.804;8.764;2023-06-10T03:48:58;7.27;;;6.57;;
25952;SDS011;13750;50.804;8.764;2023-06-10T03:51:26;7.13;;;6.53;;
25952;SDS011;13750;50.804;8.764;2023-06-10T03:53:52;8.80;;;7.25;;
25952;SDS011;13750;50.804;8.764;2023-06-10T03:56:17;7.77;;;7.07;;
25952;SDS011;13750;50.804;8.764;2023-06-10T03:58:43;7.20;;;6.57;;
25952;SDS011;13750;50.804;8.764;2023-06-10T04:01:08;6.67;;;5.97;;
25952;SDS011;13750;50.804;8.764;2023-06-10T04:03:35;6.18;;;5.68;;
25952;SDS011;13750;50.804;8.764;2023-06-10T04:06:01;6.23;;;5.73;;
25952;SDS011;13750;50.804;8.764;2023-06-10T04:08:27;5.03;;;4.53;;
25952;SDS011;13750;50.804;8.764;2023-06-10T04:10:53;8.73;;;7.10;;
25952;SDS011;13750;50.804;8.764;2023-06-10T04:13:18;7.20;;;6.57;;
25952;SDS011;13750;50.804;8.764;2023-06-10T04:15:44;8.37;;;7.57;;
25952;SDS011;13750;50.804;8.764;2023-06-10T04:18:10;8.20;;;7.33;;
25952;SDS011;13750;50.804;8.764;2023-06-10T04:20:35;7.37;;;6.50;;
25952;SDS011;13750;50.804;8.764;2023-06-10T04:23:01;8.27;;;7.57;;
25952;SDS011;13750;50.804;8.764;2023-06-10T04:25:27;8.23;;;7.13;;
25952;SDS011;13750;50.804;8.764;2023-06-10T04:27:53;7.75;;;6.95;;
25952;SDS011;13750;50.804;8.764;2023-06-10T04:30:19;7.27;;;6.57;;
25952;SDS011;13750;50.804;8.764;2023-06-10T04:32:45;6.47;;;5.87;;
25952;SDS011;13750;50.804;8.764;2023-06-10T04:35:12;7.40;;;6.70;;
25952;SDS011;13750;50.804;8.764;2023-06-10T04:37:39;8.63;;;6.57;;
25952;SDS011;13750;50.804;8.764;2023-06-10T04:40:05;7.70;;;7.00;;
25952;SDS011;13750;50.804;8.764;2023-06-10T04:42:31;6.88;;;6.28;;
25952;SDS011;13750;50.804;8.764;2023-06-10T04:44:56;7.40;;;6.70;;
25952;SDS011;13750;50.804;8.764;2023-06-10T04:47:22;7.20;;;6.15;;
25952;SDS011;13750;50.804;8.764;2023-06-10T04:49:48;7.87;;;7.07;;
25952;SDS011;13750;50.804;8.764;2023-06-10T04:52:13;8.57;;;6.67;;
25952;SDS011;13750;50.804;8.764;2023-06-10T04:54:39;8.03;;;7.23;;
25952;SDS011;13750;50.804;8.764;2023-06-10T04:57:05;6.90;;;6.23;;
25952;SDS011;13750;50.804;8.764;2023-06-10T04:59:32;7.72;;;6.68;;
25952;SDS011;13750;50.804;8.764;2023-06-10T05:01:58;7.50;;;6.80;;
25952;SDS011;13750;50.804;8.764;2023-06-10T05:04:24;8.23;;;6.60;;
25952;SDS011;13750;50.804;8.764;2023-06-10T05:06:50;7.03;;;6.33;;
25952;SDS011;13750;50.804;8.764;2023-06-10T05:09:15;8.03;;;7.20;;
25952;SDS011;13750;50.804;8.764;2023-06-10T05:11:41;7.87;;;7.10;;
25952;SDS011;13750;50.804;8.764;2023-06-10T05:14:07;7.60;;;6.87;;
25952;SDS011;13750;50.804;8.764;2023-06-10T05:16:32;8.03;;;7.30;;
25952;SDS011;13750;50.804;8.764;2023-06-10T05:18:58;8.00;;;7.27;;
25952;SDS011;13750;50.804;8.764;2023-06-10T05:21:24;8.43;;;7.63;;
25952;SDS011;13750;50.804;8.764;2023-06-10T05:23:49;7.00;;;6.30;;
25952;SDS011;13750;50.804;8.764;2023-06-10T05:26:15;7.57;;;6.87;;
25952;SDS011;13750;50.804;8.764;2023-06-10T05:28:41;9.00;;;7.53;;
25952;SDS011;13750;50.804;8.764;2023-06-10T05:31:06;8.13;;;7.17;;
25952;SDS011;13750;50.804;8.764;2023-06-10T05:33:32;7.60;;;6.90;;
25952;SDS011;13750;50.804;8.764;2023-06-10T05:35:57;7.43;;;6.63;;
25952;SDS011;13750;50.804;8.764;2023-06-10T05:38:23;10.37;;;8.33;;
25952;SDS011;13750;50.804;8.764;2023-06-10T05:40:48;7.90;;;7.10;;
25952;SDS011;13750;50.804;8.764;2023-06-10T05:43:14;7.87;;;6.80;;
25952;SDS011;13750;50.804;8.764;2023-06-10T05:45:41;8.73;;;6.95;;
25952;SDS011;13750;50.804;8.764;2023-06-10T05:48:07;7.87;;;7.10;;
25952;SDS011;13750;50.804;8.764;2023-06-10T05:50:33;7.80;;;6.93;;
25952;SDS011;13750;50.804;8.764;2023-06-10T05:53:03;7.55;;;6.32;;
25952;SDS011;13750;50.804;8.764;2023-06-10T05:55:28;7.40;;;6.63;;
25952;SDS011;13750;50.804;8.764;2023-06-10T05:58:00;8.03;;;6.80;;
25952;SDS011;13750;50.804;8.764;2023-06-10T06:00:26;8.52;;;6.55;;
25952;SDS011;13750;50.804;8.764;2023-06-10T06:02:52;6.53;;;5.93;;
25952;SDS011;13750;50.804;8.764;2023-06-10T06:05:19;6.53;;;6.00;;
25952;SDS011;13750;50.804;8.764;2023-06-10T06:07:44;7.33;;;6.23;;
25952;SDS011;13750;50.804;8.764;2023-06-10T06:10:10;8.33;;;5.83;;
25952;SDS011;13750;50.804;8.764;2023-06-10T06:12:35;6.60;;;5.90;;
25952;SDS011;13750;50.804;8.764;2023-06-10T06:15:01;7.80;;;6.83;;
25952;SDS011;13750;50.804;8.764;2023-06-10T06:17:27;9.40;;;6.50;;
25952;SDS011;13750;50.804;8.764;2023-06-10T06:19:52;6.57;;;5.87;;
25952;SDS011;13750;50.804;8.764;2023-06-10T06:22:18;7.13;;;6.43;;
25952;SDS011;13750;50.804;8.764;2023-06-10T06:24:46;6.75;;;6.05;;
25952;SDS011;13750;50.804;8.764;2023-06-10T06:27:12;5.80;;;5.20;;
25952;SDS011;13750;50.804;8.764;2023-06-10T06:29:37;6.73;;;6.03;;
25952;SDS011;13750;50.804;8.764;2023-06-10T06:32:03;7.00;;;5.73;;
25952;SDS011;13750;50.804;8.764;2023-06-10T06:34:29;5.73;;;5.13;;
25952;SDS011;13750;50.804;8.764;2023-06-10T06:36:54;5.77;;;5.17;;
25952;SDS011;13750;50.804;8.764;2023-06-10T06:39:20;7.00;;;6.07;;
25952;SDS011;13750;50.804;8.764;2023-06-10T06:41:45;7.27;;;5.63;;
25952;SDS011;13750;50.804;8.764;2023-06-10T06:44:11;6.03;;;5.40;;
25952;SDS011;13750;50.804;8.764;2023-06-10T06:46:36;7.30;;;5.07;;
25952;SDS011;13750;50.804;8.764;2023-06-10T06:49:02;6.03;;;5.43;;
25952;SDS011;13750;50.804;8.764;2023-06-10T06:51:27;5.30;;;4.33;;
25952;SDS011;13750;50.804;8.764;2023-06-10T06:53:53;5.27;;;4.73;;
25952;SDS011;13750;50.804;8.764;2023-06-10T06:56:22;4.53;;;4.13;;
25952;SDS011;13750;50.804;8.764;2023-06-10T06:58:48;6.40;;;5.10;;
25952;SDS011;13750;50.804;8.764;2023-06-10T07:01:13;6.13;;;5.17;;
25952;SDS011;13750;50.804;8.764;2023-06-10T07:03:39;6.00;;;4.97;;
25952;SDS011;13750;50.804;8.764;2023-06-10T07:06:04;6.70;;;5.20;;
25952;SDS011;13750;50.804;8.764;2023-06-10T07:08:30;7.27;;;5.30;;
25952;SDS011;13750;50.804;8.764;2023-06-10T07:10:56;5.50;;;4.67;;
25952;SDS011;13750;50.804;8.764;2023-06-10T07:13:21;6.07;;;4.77;;
25952;SDS011;13750;50.804;8.764;2023-06-10T07:15:47;5.00;;;4.43;;
25952;SDS011;13750;50.804;8.764;2023-06-10T07:18:14;5.73;;;4.83;;
25952;SDS011;13750;50.804;8.764;2023-06-10T07:20:40;6.03;;;4.43;;
25952;SDS011;13750;50.804;8.764;2023-06-10T07:23:06;6.10;;;4.82;;
25952;SDS011;13750;50.804;8.764;2023-06-10T07:25:32;4.97;;;4.57;;
25952;SDS011;13750;50.804;8.764;2023-06-10T07:27:57;5.23;;;4.73;;
25952;SDS011;13750;50.804;8.764;2023-06-10T07:30:23;4.60;;;4.10;;
25952;SDS011;13750;50.804;8.764;2023-06-10T07:32:48;6.00;;;4.87;;
25952;SDS011;13750;50.804;8.764;2023-06-10T07:35:14;5.10;;;4.60;;
25952;SDS011;13750;50.804;8.764;2023-06-10T07:37:39;4.73;;;4.00;;
25952;SDS011;13750;50.804;8.764;2023-06-10T07:40:05;3.53;;;3.23;;
25952;SDS011;13750;50.804;8.764;2023-06-10T07:42:32;6.07;;;4.85;;
25952;SDS011;13750;50.804;8.764;2023-06-10T07:44:59;4.75;;;4.03;;
25952;SDS011;13750;50.804;8.764;2023-06-10T07:47:25;5.47;;;4.00;;
25952;SDS011;13750;50.804;8.764;2023-06-10T07:49:51;5.80;;;4.73;;
25952;SDS011;13750;50.804;8.764;2023-06-10T07:52:16;7.33;;;5.13;;
25952;SDS011;13750;50.804;8.764;2023-06-10T07:54:42;5.90;;;5.13;;
25952;SDS011;13750;50.804;8.764;2023-06-10T07:57:07;5.03;;;3.90;;
25952;SDS011;13750;50.804;8.764;2023-06-10T07:59:33;4.87;;;4.23;;
25952;SDS011;13750;50.804;8.764;2023-06-10T08:01:59;5.00;;;4.17;;
25952;SDS011;13750;50.804;8.764;2023-06-10T08:04:24;4.57;;;3.67;;
25952;SDS011;13750;50.804;8.764;2023-06-10T08:06:50;6.00;;;5.40;;
25952;SDS011;13750;50.804;8.764;2023-06-10T08:09:16;6.47;;;5.00;;
25952;SDS011;13750;50.804;8.764;2023-06-10T08:11:43;4.85;;;4.45;;
25952;SDS011;13750;50.804;8.764;2023-06-10T08:14:09;6.87;;;4.93;;
25952;SDS011;13750;50.804;8.764;2023-06-10T08:16:34;5.40;;;4.83;;
25952;SDS011;13750;50.804;8.764;2023-06-10T08:19:00;6.63;;;5.10;;
25952;SDS011;13750;50.804;8.764;2023-06-10T08:21:25;4.97;;;4.47;;
25952;SDS011;13750;50.804;8.764;2023-06-10T08:23:53;5.65;;;4.97;;
25952;SDS011;13750;50.804;8.764;2023-06-10T08:26:19;5.93;;;4.88;;
25952;SDS011;13750;50.804;8.764;2023-06-10T08:28:45;5.97;;;5.37;;
25952;SDS011;13750;50.804;8.764;2023-06-10T08:31:10;4.83;;;4.43;;
25952;SDS011;13750;50.804;8.764;2023-06-10T08:33:36;5.73;;;5.20;;
25952;SDS011;13750;50.804;8.764;2023-06-10T08:36:01;4.80;;;4.33;;
25952;SDS011;13750;50.804;8.764;2023-06-10T08:38:27;4.73;;;4.33;;
25952;SDS011;13750;50.804;8.764;2023-06-10T08:40:54;5.63;;;5.00;;
25952;SDS011;13750;50.804;8.764;2023-06-10T08:45:59;5.75;;;4.43;;
25952;SDS011;13750;50.804;8.764;2023-06-10T08:48:26;4.82;;;4.00;;
25952;SDS011;13750;50.804;8.764;2023-06-10T08:50:58;5.32;;;4.80;;
25952;SDS011;13750;50.804;8.764;2023-06-10T08:55:51;5.25;;;4.18;;
25952;SDS011;13750;50.804;8.764;2023-06-10T08:58:17;5.95;;;5.45;;
25952;SDS011;13750;50.804;8.764;2023-06-10T09:03:10;5.55;;;5.05;;
25952;SDS011;13750;50.804;8.764;2023-06-10T09:05:36;5.82;;;5.20;;
25952;SDS011;13750;50.804;8.764;2023-06-10T09:08:02;5.78;;;5.35;;
25952;SDS011;13750;50.804;8.764;2023-06-10T09:10:30;5.35;;;4.80;;
25952;SDS011;13750;50.804;8.764;2023-06-10T09:12:57;6.05;;;5.40;;
25952;SDS011;13750;50.804;8.764;2023-06-10T09:15:23;4.57;;;4.17;;
25952;SDS011;13750;50.804;8.764;2023-06-10T09:17:48;3.93;;;3.63;;
25952;SDS011;13750;50.804;8.764;2023-06-10T09:20:14;4.73;;;4.30;;
25952;SDS011;13750;50.804;8.764;2023-06-10T09:22:41;3.47;;;3.17;;
25952;SDS011;13750;50.804;8.764;2023-06-10T09:25:09;4.72;;;4.32;;
25952;SDS011;13750;50.804;8.764;2023-06-10T09:27:49;4.50;;;3.90;;
25952;SDS011;13750;50.804;8.764;2023-06-10T09:30:26;5.47;;;4.88;;
25952;SDS011;13750;50.804;8.764;2023-06-10T09:32:53;3.88;;;3.47;;
25952;SDS011;13750;50.804;8.764;2023-06-10T09:35:21;3.58;;;3.28;;
25952;SDS011;13750;50.804;8.764;2023-06-10T09:37:54;4.78;;;3.75;;
25952;SDS011;13750;50.804;8.764;2023-06-10T09:40:21;5.40;;;4.90;;
25952;SDS011;13750;50.804;8.764;2023-06-10T09:42:51;5.10;;;4.60;;
25952;SDS011;13750;50.804;8.764;2023-06-10T09:45:22;4.28;;;3.88;;
25952;SDS011;13750;50.804;8.764;2023-06-10T09:47:51;5.10;;;4.65;;
25952;SDS011;13750;50.804;8.764;2023-06-10T09:50:17;5.40;;;4.90;;
25952;SDS011;13750;50.804;8.764;2023-06-10T09:52:43;4.40;;;3.90;;
25952;SDS011;13750;50.804;8.764;2023-06-10T09:55:11;5.38;;;3.78;;
25952;SDS011;13750;50.804;8.764;2023-06-10T09:57:36;4.67;;;4.27;;
25952;SDS011;13750;50.804;8.764;2023-06-10T10:00:06;4.73;;;4.33;;
25952;SDS011;13750;50.804;8.764;2023-06-10T10:02:53;4.30;;;3.90;;
25952;SDS011;13750;50.804;8.764;2023-06-10T10:05:20;5.20;;;4.80;;
25952;SDS011;13750;50.804;8.764;2023-06-10T10:07:47;5.88;;;5.38;;
25952;SDS011;13750;50.804;8.764;2023-06-10T10:10:13;4.82;;;4.43;;
25952;SDS011;13750;50.804;8.764;2023-06-10T10:12:40;5.47;;;4.95;;
25952;SDS011;13750;50.804;8.764;2023-06-10T10:15:10;5.20;;;4.55;;
25952;SDS011;13750;50.804;8.764;2023-06-10T10:17:37;4.82;;;4.20;;
25952;SDS011;13750;50.804;8.764;2023-06-10T10:20:05;4.38;;;3.97;;
25952;SDS011;13750;50.804;8.764;2023-06-10T10:22:39;5.72;;;4.80;;
25952;SDS011;13750;50.804;8.764;2023-06-10T10:25:10;5.15;;;4.65;;
25952;SDS011;13750;50.804;8.764;2023-06-10T10:27:51;5.70;;;5.05;;
25952;SDS011;13750;50.804;8.764;2023-06-10T10:30:20;5.20;;;4.70;;
25952;SDS011;13750;50.804;8.764;2023-06-10T10:35:24;15.45;;;4.53;;
25952;SDS011;13750;50.804;8.764;2023-06-10T10:37:54;5.72;;;4.80;;
25952;SDS011;13750;50.804;8.764;2023-06-10T10:40:23;5.25;;;4.75;;
25952;SDS011;13750;50.804;8.764;2023-06-10T10:42:51;5.05;;;4.45;;
25952;SDS011;13750;50.804;8.764;2023-06-10T10:47:45;5.03;;;4.35;;
25952;SDS011;13750;50.804;8.764;2023-06-10T10:50:17;5.07;;;4.57;;
25952;SDS011;13750;50.804;8.764;2023-06-10T10:52:51;4.90;;;4.35;;
25952;SDS011;13750;50.804;8.764;2023-06-10T10:55:35;4.38;;;3.97;;
25952;SDS011;13750;50.804;8.764;2023-06-10T10:58:05;4.60;;;3.87;;
25952;SDS011;13750;50.804;8.764;2023-06-10T11:00:32;5.00;;;4.47;;
25952;SDS011;13750;50.804;8.764;2023-06-10T11:08:13;4.18;;;3.88;;
25952;SDS011;13750;50.804;8.764;2023-06-10T11:10:40;4.45;;;4.05;;
25952;SDS011;13750;50.804;8.764;2023-06-10T11:13:08;4.43;;;4.03;;
25952;SDS011;13750;50.804;8.764;2023-06-10T11:15:38;4.65;;;3.85;;
25952;SDS011;13750;50.804;8.764;2023-06-10T11:28:42;5.35;;;4.28;;
25952;SDS011;13750;50.804;8.764;2023-06-10T11:31:33;4.45;;;3.95;;
25952;SDS011;13750;50.804;8.764;2023-06-10T11:34:04;4.53;;;4.13;;
25952;SDS011;13750;50.804;8.764;2023-06-10T11:36:31;5.30;;;4.90;;
25952;SDS011;13750;50.804;8.764;2023-06-10T11:39:04;5.40;;;4.32;;
25952;SDS011;13750;50.804;8.764;2023-06-10T11:41:31;4.85;;;4.45;;
25952;SDS011;13750;50.804;8.764;2023-06-10T11:46:27;4.97;;;4.32;;
25952;SDS011;13750;50.804;8.764;2023-06-10T11:48:53;5.60;;;4.30;;
25952;SDS011;13750;50.804;8.764;2023-06-10T11:51:20;5.20;;;4.70;;
25952;SDS011;13750;50.804;8.764;2023-06-10T11:53:47;6.57;;;4.50;;
25952;SDS011;13750;50.804;8.764;2023-06-10T11:56:13;4.97;;;4.47;;
25952;SDS011;13750;50.804;8.764;2023-06-10T11:58:44;4.53;;;4.13;;
25952;SDS011;13750;50.804;8.764;2023-06-10T12:01:10;3.92;;;3.53;;
25952;SDS011;13750;50.804;8.764;2023-06-10T12:03:36;3.97;;;3.67;;
25952;SDS011;13750;50.804;8.764;2023-06-10T12:06:03;4.63;;;4.22;;
25952;SDS011;13750;50.804;8.764;2023-06-10T12:08:30;4.15;;;3.75;;
25952;SDS011;13750;50.804;8.764;2023-06-10T12:10:57;4.47;;;3.50;;
25952;SDS011;13750;50.804;8.764;2023-06-10T12:13:25;4.85;;;4.45;;
25952;SDS011;13750;50.804;8.764;2023-06-10T12:15:51;3.97;;;3.65;;
25952;SDS011;13750;50.804;8.764;2023-06-10T12:20:43;5.63;;;4.38;;
25952;SDS011;13750;50.804;8.764;2023-06-10T12:23:10;4.82;;;4.25;;
25952;SDS011;13750;50.804;8.764;2023-06-10T12:25:36;5.47;;;4.47;;
25952;SDS011;13750;50.804;8.764;2023-06-10T12:28:03;4.80;;;3.95;;
25952;SDS011;13750;50.804;8.764;2023-06-10T12:30:28;4.88;;;4.00;;
25952;SDS011;13750;50.804;8.764;2023-06-10T12:32:55;4.95;;;4.35;;
25952;SDS011;13750;50.804;8.764;2023-06-10T12:35:22;4.15;;;3.85;;
25952;SDS011;13750;50.804;8.764;2023-06-10T12:40:32;5.13;;;4.63;;
25952;SDS011;13750;50.804;8.764;2023-06-10T12:42:59;4.93;;;4.53;;
25952;SDS011;13750;50.804;8.764;2023-06-10T12:45:29;3.70;;;3.40;;
25952;SDS011;13750;50.804;8.764;2023-06-10T12:50:50;3.17;;;2.88;;
25952;SDS011;13750;50.804;8.764;2023-06-10T12:53:17;4.28;;;3.45;;
25952;SDS011;13750;50.804;8.764;2023-06-10T12:55:43;4.13;;;3.83;;
25952;SDS011;13750;50.804;8.764;2023-06-10T12:58:10;4.28;;;3.97;;
25952;SDS011;13750;50.804;8.764;2023-06-10T13:00:36;6.05;;;4.32;;
25952;SDS011;13750;50.804;8.764;2023-06-10T13:03:03;5.30;;;4.80;;
25952;SDS011;13750;50.804;8.764;2023-06-10T13:05:31;4.50;;;4.13;;
25952;SDS011;13750;50.804;8.764;2023-06-10T13:10:23;4.07;;;3.72;;
25952;SDS011;13750;50.804;8.764;2023-06-10T13:12:50;5.20;;;4.70;;
25952;SDS011;13750;50.804;8.764;2023-06-10T13:15:16;4.80;;;4.38;;
25952;SDS011;13750;50.804;8.764;2023-06-10T13:17:43;4.13;;;3.65;;
25952;SDS011;13750;50.804;8.764;2023-06-10T13:20:10;4.65;;;4.03;;
25952;SDS011;13750;50.804;8.764;2023-06-10T13:22:36;4.10;;;3.70;;
25952;SDS011;13750;50.804;8.764;2023-06-10T13:25:02;5.13;;;4.10;;
25952;SDS011;13750;50.804;8.764;2023-06-10T13:27:28;5.20;;;4.80;;
25952;SDS011;13750;50.804;8.764;2023-06-10T13:29:54;4.43;;;4.07;;
25952;SDS011;13750;50.804;8.764;2023-06-10T13:32:19;5.40;;;4.90;;
25952;SDS011;13750;50.804;8.764;2023-06-10T13:34:45;6.53;;;4.63;;
25952;SDS011;13750;50.804;8.764;2023-06-10T13:37:11;4.45;;;4.05;;
25952;SDS011;13750;50.804;8.764;2023-06-10T13:39:42;4.72;;;4.32;;
25952;SDS011;13750;50.804;8.764;2023-06-10T13:42:07;4.00;;;3.70;;
25952;SDS011;13750;50.804;8.764;2023-06-10T13:44:33;5.38;;;4.57;;
25952;SDS011;13750;50.804;8.764;2023-06-10T13:47:01;5.00;;;4.57;;
25952;SDS011;13750;50.804;8.764;2023-06-10T13:51:53;4.03;;;3.72;;
25952;SDS011;13750;50.804;8.764;2023-06-10T13:54:18;5.07;;;4.57;;
25952;SDS011;13750;50.804;8.764;2023-06-10T13:56:44;3.63;;;3.33;;
25952;SDS011;13750;50.804;8.764;2023-06-10T13:59:09;4.20;;;3.80;;
25952;SDS011;13750;50.804;8.764;2023-06-10T14:01:35;4.00;;;3.60;;
25952;SDS011;13750;50.804;8.764;2023-06-10T14:04:01;4.15;;;3.80;;
25952;SDS011;13750;50.804;8.764;2023-06-10T14:08:53;4.68;;;4.25;;
25952;SDS011;13750;50.804;8.764;2023-06-10T14:11:19;3.63;;;3.25;;
25952;SDS011;13750;50.804;8.764;2023-06-10T14:13:46;4.28;;;3.97;;
25952;SDS011;13750;50.804;8.764;2023-06-10T14:16:11;3.50;;;3.20;;
25952;SDS011;13750;50.804;8.764;2023-06-10T14:18:37;3.55;;;3.25;;
25952;SDS011;13750;50.804;8.764;2023-06-10T14:21:02;4.30;;;3.90;;
25952;SDS011;13750;50.804;8.764;2023-06-10T14:23:28;4.40;;;3.23;;
25952;SDS011;13750;50.804;8.764;2023-06-10T14:25:54;4.53;;;4.13;;
25952;SDS011;13750;50.804;8.764;2023-06-10T14:28:19;4.82;;;3.70;;
25952;SDS011;13750;50.804;8.764;2023-06-10T14:30:45;3.43;;;3.17;;
25952;SDS011;13750;50.804;8.764;2023-06-10T14:33:11;4.15;;;3.28;;
25952;SDS011;13750;50.804;8.764;2023-06-10T14:35:36;3.80;;;3.37;;
25952;SDS011;13750;50.804;8.764;2023-06-10T14:38:02;3.23;;;2.90;;
25952;SDS011;13750;50.804;8.764;2023-06-10T14:40:29;3.42;;;2.90;;
25952;SDS011;13750;50.804;8.764;2023-06-10T14:42:56;3.55;;;3.25;;
25952;SDS011;13750;50.804;8.764;2023-06-10T14:45:22;3.72;;;3.40;;
25952;SDS011;13750;50.804;8.764;2023-06-10T14:47:48;3.03;;;2.83;;
25952;SDS011;13750;50.804;8.764;2023-06-10T14:50:13;4.07;;;3.13;;
25952;SDS011;13750;50.804;8.764;2023-06-10T14:52:39;5.20;;;4.15;;
25952;SDS011;13750;50.804;8.764;2023-06-10T14:55:05;4.22;;;3.47;;
25952;SDS011;13750;50.804;8.764;2023-06-10T14:57:31;3.70;;;3.25;;
25952;SDS011;13750;50.804;8.764;2023-06-10T14:59:56;5.27;;;3.50;;
25952;SDS011;13750;50.804;8.764;2023-06-10T15:02:22;2.97;;;2.73;;
25952;SDS011;13750;50.804;8.764;2023-06-10T15:04:48;3.13;;;2.83;;
25952;SDS011;13750;50.804;8.764;2023-06-10T15:07:14;4.38;;;3.97;;
25952;SDS011;13750;50.804;8.764;2023-06-10T15:09:42;3.58;;;3.03;;
25952;SDS011;13750;50.804;8.764;2023-06-10T15:12:08;3.67;;;3.38;;
25952;SDS011;13750;50.804;8.764;2023-06-10T15:14:34;4.40;;;3.58;;
25952;SDS011;13750;50.804;8.764;2023-06-10T15:17:00;3.42;;;3.13;;
25952;SDS011;13750;50.804;8.764;2023-06-10T15:19:26;3.67;;;3.35;;
25952;SDS011;13750;50.804;8.764;2023-06-10T15:21:51;5.78;;;4.78;;
25952;SDS011;13750;50.804;8.764;2023-06-10T15:24:17;4.05;;;3.65;;
25952;SDS011;13750;50.804;8.764;2023-06-10T15:26:43;4.67;;;4.20;;
25952;SDS011;13750;50.804;8.764;2023-06-10T15:31:34;4.70;;;4.23;;
25952;SDS011;13750;50.804;8.764;2023-06-10T15:34:03;3.70;;;3.40;;
25952;SDS011;13750;50.804;8.764;2023-06-10T15:36:40;3.45;;;3.08;;
25952;SDS011;13750;50.804;8.764;2023-06-10T15:45:47;4.30;;;3.90;;
25952;SDS011;13750;50.804;8.764;2023-06-10T15:48:13;6.72;;;4.45;;
25952;SDS011;13750;50.804;8.764;2023-06-10T15:50:49;4.38;;;4.03;;
25952;SDS011;13750;50.804;8.764;2023-06-10T15:54:26;3.92;;;3.53;;